TimeAEST,TemperatureF,Dew PointF,Humidity,Sea Level PressureIn,VisibilityMPH,Wind Direction,Wind SpeedMPH,Gust SpeedMPH,PrecipitationIn,Events,Conditions,WindDirDegrees,DateUTC
12:00 AM,76,74,94,29.83,,Calm,Calm,,,,,,2013-12-13 14:00:00
12:00 AM,75.2,75.2,100,29.83,6.2,Calm,Calm,-,N/A,,Overcast,0,2013-12-13 14:00:00
12:30 AM,75.2,75.2,100,29.83,6.2,Calm,Calm,-,N/A,,Overcast,0,2013-12-13 14:30:00
1:00 AM,76,74,92,29.83,,SSE,1.2,,,,,160,2013-12-13 15:00:00
1:00 AM,75.2,73.4,94,29.83,6.2,SSE,1.2,-,N/A,,Overcast,160,2013-12-13 15:00:00
1:30 AM,77.0,75.2,94,29.80,6.2,WNW,2.3,-,N/A,,Overcast,290,2013-12-13 15:30:00
2:00 AM,77.0,75.2,94,29.80,6.2,Calm,Calm,-,N/A,,Overcast,0,2013-12-13 16:00:00
2:30 AM,77.0,73.4,89,29.77,6.2,SSE,6.9,-,N/A,,Overcast,150,2013-12-13 16:30:00
3:00 AM,77,74,86,29.78,,Calm,Calm,,,,Overcast,,2013-12-13 17:00:00
3:00 AM,77.0,73.4,89,29.77,-9999.0,Calm,Calm,-,N/A,,Unknown,0,2013-12-13 17:00:00
3:30 AM,77.0,73.4,89,29.77,6.2,ESE,5.8,-,N/A,,Overcast,120,2013-12-13 17:30:00
4:00 AM,76,73,87,29.79,,SSE,9.2,,,,,150,2013-12-13 18:00:00
4:00 AM,77.0,73.4,89,29.77,6.2,SSE,9.2,-,N/A,,Mostly Cloudy,150,2013-12-13 18:00:00
4:30 AM,75.2,73.4,94,29.77,6.2,South,5.8,-,N/A,,Mostly Cloudy,190,2013-12-13 18:30:00
5:00 AM,75.2,73.4,94,29.77,6.2,Calm,Calm,-,N/A,,Mostly Cloudy,0,2013-12-13 19:00:00
5:30 AM,75.2,73.4,94,29.80,6.2,Calm,Calm,-,N/A,,Mostly Cloudy,0,2013-12-13 19:30:00
6:00 AM,76,74,91,29.82,,WSW,3.5,,,,Overcast,240,2013-12-13 20:00:00
6:00 AM,75.2,73.4,94,29.80,6.2,SW,3.5,-,N/A,,Scattered Clouds,230,2013-12-13 20:00:00
6:30 AM,77.0,73.4,89,29.80,6.2,SSE,9.2,-,N/A,,Scattered Clouds,150,2013-12-13 20:30:00
7:00 AM,79,74,79,29.85,,SSE,8.1,,,,,150,2013-12-13 21:00:00
7:00 AM,78.8,73.4,83,29.83,6.2,SSE,8.1,-,N/A,,Partly Cloudy,150,2013-12-13 21:00:00
7:30 AM,80.6,73.4,79,29.83,6.2,SE,9.2,-,N/A,,Scattered Clouds,140,2013-12-13 21:30:00
8:00 AM,84.2,71.6,66,29.86,6.2,SSE,8.1,-,N/A,,Scattered Clouds,150,2013-12-13 22:00:00
8:30 AM,84.2,71.6,66,29.86,6.2,SSE,6.9,-,N/A,,Scattered Clouds,160,2013-12-13 22:30:00
9:00 AM,85,72,56,29.86,16,SE,8.1,,,,Partly Cloudy,140,2013-12-13 23:00:00
9:00 AM,86.0,71.6,62,29.86,6.2,SE,8.1,-,N/A,,Scattered Clouds,140,2013-12-13 23:00:00
9:30 AM,86.0,71.6,62,29.86,6.2,ESE,6.9,-,N/A,,Scattered Clouds,110,2013-12-13 23:30:00
10:00 AM,87,72,51,29.86,,ENE,9.2,,,,,60,2013-12-14 00:00:00
10:00 AM,86.0,71.6,62,29.86,6.2,ENE,9.2,-,N/A,,Scattered Clouds,60,2013-12-14 00:00:00
10:30 AM,86.0,73.4,66,29.83,6.2,NE,11.5,-,N/A,,Scattered Clouds,50,2013-12-14 00:30:00
11:00 AM,84.2,73.4,70,29.83,6.2,ENE,10.4,-,N/A,,Scattered Clouds,60,2013-12-14 01:00:00
11:30 AM,84.2,75.2,74,29.83,6.2,ENE,11.5,-,N/A,,Scattered Clouds,60,2013-12-14 01:30:00
11:56 AM,80.6,75.2,84,29.83,3.7,NE,6.9,-,N/A,Rain,Light Rain Showers,40,2013-12-14 01:56:00
12:00 PM,80,76,83,29.84,4,NE,6.9,,,,Overcast,40,2013-12-14 02:00:00
12:00 PM,80.6,75.2,84,29.83,3.7,NE,6.9,-,N/A,Rain,Light Rain Showers,40,2013-12-14 02:00:00
12:12 PM,80.6,77.0,89,29.83,6.2,North,8.1,-,N/A,,Scattered Clouds,10,2013-12-14 02:12:00
12:30 PM,84.2,77.0,79,29.83,6.2,NNE,8.1,-,N/A,,Scattered Clouds,20,2013-12-14 02:30:00
1:00 PM,85,74,63,29.83,,NE,9.2,,,,,50,2013-12-14 03:00:00
1:00 PM,86.0,75.2,70,29.80,6.2,NE,9.2,-,N/A,,Scattered Clouds,50,2013-12-14 03:00:00
1:30 PM,84.2,71.6,66,29.80,6.2,NE,10.4,-,N/A,,Mostly Cloudy,50,2013-12-14 03:30:00
2:00 PM,86.0,73.4,66,29.80,6.2,NE,10.4,-,N/A,,Mostly Cloudy,50,2013-12-14 04:00:00
2:30 PM,82.4,73.4,74,29.77,6.2,NNE,8.1,-,N/A,,Scattered Clouds,30,2013-12-14 04:30:00
3:00 PM,85,79,78,29.78,19,NE,10.4,,,Rain,Light Rain Showers,50,2013-12-14 05:00:00
3:00 PM,86.0,78.8,79,29.77,6.2,NE,10.4,-,N/A,,Scattered Clouds,50,2013-12-14 05:00:00
3:30 PM,84.2,69.8,62,29.77,6.2,SE,15.0,-,N/A,,Scattered Clouds,140,2013-12-14 05:30:00
4:00 PM,82,72,65,29.80,,South,8.1,,,,,190,2013-12-14 06:00:00
4:00 PM,82.4,71.6,70,29.77,6.2,South,8.1,-,N/A,,Mostly Cloudy,190,2013-12-14 06:00:00
4:30 PM,82.4,71.6,70,29.77,6.2,South,6.9,-,N/A,,Mostly Cloudy,190,2013-12-14 06:30:00
5:00 PM,82.4,71.6,70,29.77,6.2,South,6.9,-,N/A,,Mostly Cloudy,170,2013-12-14 07:00:00
5:30 PM,82.4,73.4,74,29.77,6.2,South,6.9,-,N/A,,Mostly Cloudy,180,2013-12-14 07:30:00
6:00 PM,83,72,62,29.78,,SE,12.7,,,,,130,2013-12-14 08:00:00
6:00 PM,82.4,71.6,70,29.77,6.2,SE,12.7,-,N/A,,Mostly Cloudy,130,2013-12-14 08:00:00
6:30 PM,82.4,73.4,74,29.77,6.2,SE,10.4,-,N/A,,Mostly Cloudy,140,2013-12-14 08:30:00
7:00 PM,82,72,65,29.82,,SE,9.2,,,,,130,2013-12-14 09:00:00
7:00 PM,82.4,71.6,70,29.80,6.2,SE,9.2,-,N/A,,Mostly Cloudy,130,2013-12-14 09:00:00
7:30 PM,80.6,73.4,79,29.83,6.2,SE,9.2,-,N/A,,Mostly Cloudy,140,2013-12-14 09:30:00
8:00 PM,80.6,73.4,79,29.83,6.2,SE,10.4,-,N/A,,Scattered Clouds,140,2013-12-14 10:00:00
8:30 PM,80.6,73.4,79,29.83,6.2,South,6.9,-,N/A,,Scattered Clouds,180,2013-12-14 10:30:00
9:00 PM,79,74,81,29.85,,SSE,6.9,,,,Overcast,160,2013-12-14 11:00:00
9:00 PM,78.8,75.2,89,29.83,6.2,SSE,6.9,-,N/A,,Scattered Clouds,160,2013-12-14 11:00:00
9:30 PM,78.8,73.4,83,29.86,6.2,SSE,6.9,-,N/A,,Partly Cloudy,160,2013-12-14 11:30:00
10:00 PM,79,74,80,29.87,,SSE,8.1,,,,,160,2013-12-14 12:00:00
10:00 PM,78.8,73.4,83,29.86,6.2,SSE,8.1,-,N/A,,Partly Cloudy,160,2013-12-14 12:00:00
10:30 PM,78.8,73.4,83,29.86,6.2,SSE,8.1,-,N/A,,Scattered Clouds,150,2013-12-14 12:30:00
11:00 PM,78.8,73.4,83,29.86,6.2,SSE,8.1,-,N/A,,Scattered Clouds,150,2013-12-14 13:00:00
11:30 PM,78.8,73.4,83,29.86,6.2,SSE,9.2,-,N/A,,Scattered Clouds,150,2013-12-14 13:30:00